Time;durP1;ratioP1;P1;durP2;ratioP2;P2;SDS_P1;SDS_P2;PMS_P1;PMS_P2;Temp;Humidity;BMP_temperature;BMP_pressure;BME280_temperature;BME280_humidity;BME280_pressure;Samples;Min_cycle;Max_cycle;Signal;HPM_P1;HPM_P2
2021/07/04 00:01:16;;;;;;;7.00;5.88;;;;;;;;;;5013492;28;20104;-71
2021/07/04 00:03:42;;;;;;;9.05;6.38;;;;;;;;;;5013546;28;20014;-71
2021/07/04 00:06:08;;;;;;;7.93;5.82;;;;;;;;;;5013548;28;20060;-70
2021/07/04 00:08:35;;;;;;;10.20;6.55;;;;;;;;;;5013494;28;20033;-71
2021/07/04 00:11:06;;;;;;;6.90;5.80;;;;;;;;;;5013360;28;20101;-71
2021/07/04 00:13:32;;;;;;;10.48;6.20;;;;;;;;;;5013476;28;20461;-71
2021/07/04 00:15:59;;;;;;;6.43;5.82;;;;;;;;;;5013324;28;20377;-71
2021/07/04 00:18:26;;;;;;;7.75;6.07;;;;;;;;;;5013335;28;20365;-71
2021/07/04 00:20:53;;;;;;;6.47;5.85;;;;;;;;;;5013069;28;20127;-70
2021/07/04 00:23:20;;;;;;;7.50;6.25;;;;;;;;;;5012882;28;20026;-71
2021/07/04 00:25:46;;;;;;;6.75;5.78;;;;;;;;;;5013072;28;20022;-69
2021/07/04 00:28:13;;;;;;;7.25;5.60;;;;;;;;;;4988800;28;20026;-71
2021/07/04 00:30:39;;;;;;;6.85;5.57;;;;;;;;;;5013188;28;20032;-71
2021/07/04 00:33:06;;;;;;;7.90;5.93;;;;;;;;;;5012985;28;20104;-70
2021/07/04 00:35:32;;;;;;;6.63;5.22;;;;;;;;;;5013256;28;20029;-71
2021/07/04 00:37:58;;;;;;;7.05;5.57;;;;;;;;;;5013072;28;20030;-71
2021/07/04 00:40:25;;;;;;;5.82;5.22;;;;;;;;;;5013306;28;20022;-70
2021/07/04 00:42:52;;;;;;;6.35;5.53;;;;;;;;;;5013154;28;20041;-69
2021/07/04 00:45:19;;;;;;;6.78;6.13;;;;;;;;;;5013078;28;20018;-71
2021/07/04 00:47:46;;;;;;;8.10;5.80;;;;;;;;;;5013010;28;20037;-71
2021/07/04 00:50:12;;;;;;;7.30;5.35;;;;;;;;;;5012645;28;20042;-71
2021/07/04 00:52:39;;;;;;;7.80;5.97;;;;;;;;;;5013007;28;20511;-71
2021/07/04 00:55:06;;;;;;;6.22;5.63;;;;;;;;;;5012836;28;20476;-71
2021/07/04 00:57:33;;;;;;;6.80;5.72;;;;;;;;;;5013038;28;20026;-71
2021/07/04 01:00:00;;;;;;;7.80;6.00;;;;;;;;;;5012809;28;20029;-71
2021/07/04 01:02:26;;;;;;;6.57;5.63;;;;;;;;;;5012540;28;20030;-69
2021/07/04 01:04:54;;;;;;;8.18;5.72;;;;;;;;;;5012193;28;20018;-71
2021/07/04 01:07:20;;;;;;;7.40;5.70;;;;;;;;;;5012244;28;20030;-70
2021/07/04 01:09:46;;;;;;;6.72;5.50;;;;;;;;;;5012816;28;20026;-70
2021/07/04 01:12:12;;;;;;;6.13;5.13;;;;;;;;;;5012565;28;20034;-70
2021/07/04 01:14:39;;;;;;;7.53;6.07;;;;;;;;;;5012432;28;20064;-71
2021/07/04 01:17:05;;;;;;;7.05;6.35;;;;;;;;;;5012520;28;20034;-70
2021/07/04 01:19:31;;;;;;;6.88;5.95;;;;;;;;;;5012236;28;20046;-71
2021/07/04 01:21:58;;;;;;;9.02;6.30;;;;;;;;;;5012627;28;20391;-70
2021/07/04 01:24:25;;;;;;;6.88;6.10;;;;;;;;;;4985750;28;20116;-70
2021/07/04 01:26:51;;;;;;;6.60;5.90;;;;;;;;;;5012581;28;20022;-69
2021/07/04 01:29:18;;;;;;;7.05;5.50;;;;;;;;;;5012384;28;20041;-70
2021/07/04 01:31:44;;;;;;;5.78;5.18;;;;;;;;;;5012706;28;20037;-70
2021/07/04 01:34:10;;;;;;;6.53;5.65;;;487.20;1894.40;;;;;;5012577;28;20022;-71
2021/07/04 01:36:38;;;;;;;7.55;5.53;;;487.10;1894.40;;;;;;5015903;28;20072;-71
2021/07/04 01:39:04;;;;;;;6.35;5.57;;;;;;;;;;5016581;28;20026;-71
2021/07/04 01:41:30;;;;;;;7.72;5.63;;;;;;;;;;5016523;28;20030;-68
2021/07/04 01:43:56;;;;;;;8.35;5.40;;;;;;;;;;5016467;28;20026;-72
2021/07/04 01:46:24;;;;;;;6.55;5.60;;;;;;;;;;5016182;28;20117;-73
2021/07/04 01:48:50;;;;;;;6.20;5.60;;;;;;;;;;5016451;28;20125;-71
2021/07/04 01:51:16;;;;;;;5.97;5.13;;;;;;;;;;5016120;28;20038;-72
2021/07/04 01:53:42;;;;;;;8.30;5.40;;;;;;;;;;5016148;28;20075;-72
2021/07/04 01:56:08;;;;;;;6.97;5.32;;;512.20;1894.40;;;;;;5016108;28;20022;-73
2021/07/04 01:58:35;;;;;;;5.72;4.72;;;;;;;;;;5015988;28;20018;-71
2021/07/04 02:01:01;;;;;;;7.07;5.25;;;512.10;1894.40;;;;;;5016023;28;20832;-72
2021/07/04 02:03:27;;;;;;;6.50;5.30;;;;;;;;;;5015702;28;20025;-71
2021/07/04 02:05:53;;;;;;;7.85;5.75;;;;;;;;;;5015411;28;20109;-70
2021/07/04 02:08:19;;;;;;;6.72;5.28;;;;;;;;;;5015833;28;20030;-71
2021/07/04 02:10:45;;;;;;;6.55;5.50;;;;;;;;;;5015639;28;20507;-71
2021/07/04 02:13:11;;;;;;;5.45;4.82;;;;;;;;;;5015724;28;20532;-73
2021/07/04 02:15:39;;;;;;;9.88;5.75;;;;;;;;;;5015587;28;20420;-72
2021/07/04 02:18:06;;;;;;;6.45;5.45;;;;;;;;;;5015533;28;20022;-68
2021/07/04 02:20:34;;;;;;;7.75;5.22;;;;;;;;;;5015365;28;20053;-70
2021/07/04 02:23:01;;;;;;;6.05;5.43;;;;;;;;;;5015497;28;20073;-70
2021/07/04 02:25:27;;;;;;;7.38;5.57;;;;;;;;;;5015389;28;20057;-70
2021/07/04 02:27:53;;;;;;;6.70;5.40;;;;;;;;;;5015437;28;20029;-70
2021/07/04 02:30:19;;;;;;;5.82;5.18;;;;;;;;;;5015415;28;20057;-70
2021/07/04 02:32:46;;;;;;;7.07;5.78;;;;;;;;;;5015360;28;20036;-69
2021/07/04 02:35:11;;;;;;;6.38;5.32;;;512.10;1868.80;;;;;;5015402;28;20051;-70
2021/07/04 02:37:37;;;;;;;8.88;5.38;;;487.30;1868.80;;;;;;5015335;28;20037;-69
2021/07/04 02:40:04;;;;;;;7.30;5.18;;;487.10;1920.00;;;;;;5015507;28;20030;-70
2021/07/04 02:42:31;;;;;;;7.50;5.40;;;;;;;;;;5015249;28;20033;-70
2021/07/04 02:44:58;;;;;;;6.05;5.25;;;486.80;1945.60;;;;;;5014930;28;20022;-70
2021/07/04 02:47:25;;;;;;;5.78;4.75;;;486.80;1971.20;;;;;;5014864;28;20018;-70
2021/07/04 02:49:51;;;;;;;6.53;4.93;;;486.90;1945.60;;;;;;5014796;28;20037;-70
2021/07/04 02:52:16;;;;;;;7.05;5.28;;;487.00;1945.60;;;;;;5015046;28;20042;-70
2021/07/04 02:54:42;;;;;;;7.97;5.70;;;487.00;1945.60;;;;;;5015051;28;20026;-71
2021/07/04 02:57:08;;;;;;;7.43;5.07;;;487.00;1920.00;;;;;;5014861;28;20053;-70
2021/07/04 02:59:34;;;;;;;5.72;5.10;;;487.00;1945.60;;;;;;5015060;28;20534;-70
2021/07/04 03:01:59;;;;;;;7.28;5.40;;;487.00;1945.60;;;;;;5014825;28;20041;-70
2021/07/04 03:04:25;;;;;;;5.93;5.18;;;487.00;1945.60;;;;;;5014842;28;20030;-70
2021/07/04 03:06:51;;;;;;;6.68;5.85;;;487.10;1920.00;;;;;;5014789;28;20026;-70
2021/07/04 03:09:17;;;;;;;6.82;6.05;;;487.10;1920.00;;;;;;5014750;28;20049;-70
2021/07/04 03:11:42;;;;;;;8.35;6.13;;;487.00;1920.00;;;;;;5014651;28;20046;-70
2021/07/04 03:14:08;;;;;;;10.77;6.30;;;487.00;1945.60;;;;;;5014684;28;20029;-70
2021/07/04 03:16:34;;;;;;;7.50;5.43;;;487.00;1945.60;;;;;;5014507;28;20079;-69
2021/07/04 03:18:59;;;;;;;6.68;5.72;;;487.00;1945.60;;;;;;5014291;28;20108;-68
2021/07/04 03:21:25;;;;;;;7.78;6.13;;;487.00;1945.60;;;;;;5014450;28;20058;-69
2021/07/04 03:23:51;;;;;;;7.07;5.43;;;487.00;1945.60;;;;;;5014453;28;20056;-70
2021/07/04 03:26:20;;;;;;;7.47;5.45;;;486.90;1945.60;;;;;;5014494;28;20064;-70
2021/07/04 03:28:45;;;;;;;6.32;5.70;;;486.90;1945.60;;;;;;5014339;28;20061;-72
2021/07/04 03:31:11;;;;;;;5.93;5.05;;;487.00;1945.60;;;;;;5014169;28;20048;-71
2021/07/04 03:33:37;;;;;;;8.13;5.72;;;487.10;1920.00;;;;;;5014262;28;20036;-72
2021/07/04 03:36:02;;;;;;;7.10;5.53;;;487.10;1920.00;;;;;;5014348;28;20053;-72
2021/07/04 03:38:28;;;;;;;7.38;5.70;;;487.20;1894.40;;;;;;5014271;28;20022;-72
2021/07/04 03:40:54;;;;;;;7.85;5.35;;;487.10;1920.00;;;;;;5014147;28;20104;-72
2021/07/04 03:43:20;;;;;;;7.80;5.47;;;487.20;1894.40;;;;;;5014047;28;20023;-70
2021/07/04 03:45:45;;;;;;;6.22;5.22;;;487.10;1920.00;;;;;;5014105;28;20091;-71
2021/07/04 03:48:11;;;;;;;6.13;5.45;;;487.00;1945.60;;;;;;5013825;28;20030;-72
2021/07/04 03:50:37;;;;;;;7.50;5.20;;;487.00;1945.60;;;;;;5013827;28;20034;-72
2021/07/04 03:53:03;;;;;;;7.05;5.50;;;487.10;1920.00;;;;;;5014103;28;20038;-71
2021/07/04 03:55:29;;;;;;;7.05;5.05;;;487.10;1920.00;;;;;;5012329;28;20026;-71
2021/07/04 03:57:55;;;;;;;7.25;5.18;;;487.10;1920.00;;;;;;5013138;28;20033;-71
2021/07/04 04:00:21;;;;;;;7.35;5.68;;;487.00;1945.60;;;;;;5013687;28;20018;-70
2021/07/04 04:02:47;;;;;;;8.40;5.00;;;487.00;1945.60;;;;;;5013702;28;20026;-71
2021/07/04 04:05:14;;;;;;;6.55;5.47;;;487.10;1945.60;;;;;;5013586;28;20030;-71
2021/07/04 04:07:40;;;;;;;7.20;5.32;;;487.10;1945.60;;;;;;5013998;28;20379;-71
2021/07/04 04:10:07;;;;;;;9.02;5.80;;;487.10;1945.60;;;;;;5013567;28;20097;-71
2021/07/04 04:12:33;;;;;;;6.82;5.55;;;487.10;1945.60;;;;;;5013552;28;20046;-71
2021/07/04 04:15:00;;;;;;;9.02;5.18;;;487.10;1945.60;;;;;;5013637;28;20022;-72
2021/07/04 04:17:27;;;;;;;7.38;5.65;;;487.20;1920.00;;;;;;5013277;28;20076;-72
2021/07/04 04:19:54;;;;;;;10.10;5.53;;;;;;;;;;5013130;28;20045;-72
2021/07/04 04:22:20;;;;;;;7.55;5.32;;;;;;;;;;5013413;28;20033;-71
2021/07/04 04:24:47;;;;;;;6.20;5.40;;;512.10;1920.00;;;;;;5013447;28;20018;-71
2021/07/04 04:27:13;;;;;;;7.30;5.80;;;;;;;;;;5013197;28;20036;-73
2021/07/04 04:29:39;;;;;;;8.63;5.90;;;;;;;;;;5013257;28;20025;-71
2021/07/04 04:32:05;;;;;;;8.23;6.00;;;;;;;;;;5013224;28;20065;-72
2021/07/04 04:34:31;;;;;;;7.93;6.18;;;;;;;;;;5013110;28;20048;-71
2021/07/04 04:36:58;;;;;;;10.02;6.97;;;;;;;;;;5013218;28;20025;-67
2021/07/04 04:39:24;;;;;;;9.63;7.28;;;;;;;;;;5013220;28;20030;-70
2021/07/04 04:41:50;;;;;;;7.97;6.75;;;;;;;;;;5013062;28;20029;-71
2021/07/04 04:44:17;;;;;;;8.32;6.45;;;;;;;;;;5013081;28;20105;-72
2021/07/04 04:46:43;;;;;;;8.40;6.13;;;;;;;;;;5013223;28;20447;-71
2021/07/04 04:49:10;;;;;;;6.10;5.32;;;;;;;;;;5012863;28;20101;-71
2021/07/04 04:51:36;;;;;;;5.80;5.20;;;;;;;;;;5013007;28;20511;-72
2021/07/04 04:54:02;;;;;;;9.95;5.43;;;;;;;;;;5013016;28;20022;-73
2021/07/04 04:56:29;;;;;;;8.55;5.43;;;;;;;;;;5012845;28;20088;-72
2021/07/04 04:58:55;;;;;;;5.80;5.18;;;;;;;;;;5012865;28;20030;-72
2021/07/04 05:01:21;;;;;;;7.38;4.85;;;;;;;;;;5012967;28;20839;-71
2021/07/04 05:03:46;;;;;;;9.05;5.40;;;537.90;1843.20;;;;;;5012714;28;20045;-71
2021/07/04 05:06:12;;;;;;;5.57;4.90;;;537.70;1868.80;;;;;;5012751;28;20068;-71
2021/07/04 05:08:38;;;;;;;7.38;5.47;;;537.70;1894.40;;;;;;5012548;28;20068;-72
2021/07/04 05:11:07;;;;;;;5.68;4.90;;;;;;;;;;5012731;28;20026;-73
2021/07/04 05:13:33;;;;;;;6.30;5.13;;;;;;;;;;5012617;28;20064;-72
2021/07/04 05:15:59;;;;;;;7.28;5.35;;;;;;;;;;5012826;28;20033;-72
2021/07/04 05:18:25;;;;;;;6.40;4.90;;;;;;;;;;5012505;28;20022;-72
2021/07/04 05:20:52;;;;;;;7.95;5.47;;;;;;;;;;5011365;28;20504;-73
2021/07/04 05:23:18;;;;;;;6.10;5.00;;;;;;;;;;5012996;28;20376;-72
2021/07/04 05:25:44;;;;;;;7.00;5.15;;;;;;;;;;5012444;28;20056;-71
2021/07/04 05:28:10;;;;;;;7.10;5.22;;;;;;;;;;5012648;28;20037;-72
2021/07/04 05:30:36;;;;;;;8.10;5.20;;;;;;;;;;5012554;28;20484;-72
2021/07/04 05:33:02;;;;;;;6.43;4.85;;;;;;;;;;5012362;28;20021;-72
2021/07/04 05:35:28;;;;;;;6.53;5.55;;;;;;;;;;5012519;28;20022;-71
2021/07/04 05:37:54;;;;;;;6.68;5.18;;;;;;;;;;5012289;28;20026;-71
2021/07/04 05:40:20;;;;;;;8.27;5.00;;;;;;;;;;5012641;28;20058;-72
2021/07/04 05:42:46;;;;;;;5.85;5.10;;;;;;;;;;5012502;28;20022;-75
2021/07/04 05:45:15;;;;;;;5.82;5.18;;;;;;;;;;5012518;28;20045;-74
2021/07/04 05:47:41;;;;;;;5.72;5.03;;;;;;;;;;5012390;28;20029;-74
2021/07/04 05:50:08;;;;;;;7.75;5.72;;;;;;;;;;5012058;28;20037;-74
2021/07/04 05:52:34;;;;;;;7.30;5.10;;;;;;;;;;5012532;28;20034;-74
2021/07/04 05:55:00;;;;;;;6.88;5.47;;;589.10;1664.00;;;;;;5012443;28;20037;-74
2021/07/04 05:57:26;;;;;;;9.48;6.70;;;589.00;1664.00;;;;;;5012556;28;20028;-73
2021/07/04 05:59:52;;;;;;;8.93;6.05;;;;;;;;;;5012448;28;20028;-68
2021/07/04 06:02:17;;;;;;;6.97;5.45;;;589.20;1664.00;;;;;;5012384;28;20117;-71
2021/07/04 06:04:43;;;;;;;10.27;5.38;;;589.20;1638.40;;;;;;5011132;28;20029;-69
2021/07/04 06:07:09;;;;;;;6.55;5.03;;;589.20;1638.40;;;;;;5012176;28;20390;-71
2021/07/04 06:09:35;;;;;;;9.80;5.97;;;589.30;1664.00;;;;;;4994539;28;20060;-70
2021/07/04 06:12:00;;;;;;;10.50;5.68;;;589.40;1638.40;;;;;;5012050;28;20030;-70
2021/07/04 06:14:26;;;;;;;7.65;6.57;;;589.50;1689.60;;;;;;5012183;28;20029;-70
2021/07/04 06:16:52;;;;;;;7.32;6.47;;;589.70;1664.00;;;;;;5012258;28;20026;-65
2021/07/04 06:19:17;;;;;;;11.13;6.22;;;589.70;1612.80;;;;;;5011813;28;20037;-71
2021/07/04 06:21:43;;;;;;;10.63;7.00;;;589.70;1612.80;;;;;;5013629;28;20053;-67
2021/07/04 06:24:09;;;;;;;7.70;6.20;;;589.70;1587.20;;;;;;5015498;28;20018;-66
2021/07/04 06:26:35;;;;;;;9.18;6.22;;;589.70;1587.20;;;;;;5015441;28;20026;-69
2021/07/04 06:29:01;;;;;;;11.98;6.80;;;614.40;1587.20;;;;;;5015472;28;20488;-69
2021/07/04 06:31:29;;;;;;;9.25;6.75;;;614.50;1612.80;;;;;;5015294;28;20040;-70
2021/07/04 06:33:58;;;;;;;11.13;6.28;;;614.70;1587.20;;;;;;5015354;28;20599;-68
2021/07/04 06:36:25;;;;;;;10.13;7.22;;;614.70;1587.20;;;;;;5015187;28;20034;-69
2021/07/04 06:38:52;;;;;;;10.15;7.25;;;614.70;1561.60;;;;;;5015523;28;20024;-68
2021/07/04 06:41:18;;;;;;;10.05;6.43;;;614.80;1561.60;;;;;;5015206;28;20369;-68
2021/07/04 06:43:43;;;;;;;7.75;6.63;;;614.90;1561.60;;;;;;5015223;28;20076;-68
2021/07/04 06:46:09;;;;;;;8.98;6.95;;;614.90;1561.60;;;;;;5015221;28;20061;-68
2021/07/04 06:48:37;;;;;;;8.15;6.57;;;615.00;1536.00;;;;;;5014915;28;20014;-68
2021/07/04 06:51:03;;;;;;;11.35;6.65;;;615.00;1536.00;;;;;;5014905;28;20500;-69
2021/07/04 06:53:29;;;;;;;13.77;8.50;;;615.00;1587.20;;;;;;5014974;28;20057;-69
2021/07/04 06:55:55;;;;;;;12.38;7.15;;;615.10;1536.00;;;;;;5014992;28;20068;-70
2021/07/04 06:58:20;;;;;;;9.60;7.68;;;615.20;1536.00;;;;;;5014844;28;20030;-70
2021/07/04 07:00:46;;;;;;;19.88;8.75;;;615.30;1510.40;;;;;;5014802;28;20053;-70
2021/07/04 07:03:12;;;;;;;12.75;8.18;;;640.10;1510.40;;;;;;5014850;28;20036;-69
2021/07/04 07:05:38;;;;;;;13.35;8.60;;;640.00;1510.40;;;;;;5014526;28;20026;-70
2021/07/04 07:08:04;;;;;;;13.60;7.85;;;640.10;1561.60;;;;;;5014795;28;20022;-71
2021/07/04 07:10:30;;;;;;;10.15;7.65;;;640.50;1433.60;;;;;;5014493;28;20018;-69
2021/07/04 07:12:55;;;;;;;7.47;5.63;;;640.30;1459.20;;;;;;5014816;28;20491;-70
2021/07/04 07:15:21;;;;;;;8.07;5.63;;;640.40;1331.20;;;;;;5014495;28;20017;-68
2021/07/04 07:17:47;;;;;;;8.55;5.60;;;640.50;1331.20;;;;;;5014414;28;20034;-69
2021/07/04 07:20:14;;;;;;;7.80;5.43;;;640.60;1356.80;;;;;;5014169;28;20048;-70
2021/07/04 07:22:40;;;;;;;6.30;5.13;;;640.70;1331.20;;;;;;5014136;28;20025;-70
2021/07/04 07:25:07;;;;;;;6.38;4.65;;;640.70;1356.80;;;;;;5014262;28;20018;-71
2021/07/04 07:27:33;;;;;;;7.40;5.47;;;640.90;1280.00;;;;;;5014286;28;20087;-70
2021/07/04 07:29:59;;;;;;;5.30;4.43;;;665.60;1305.60;;;;;;5006912;28;20062;-70
2021/07/04 07:32:26;;;;;;;7.20;5.35;;;665.60;1331.20;;;;;;5013039;28;20026;-70
2021/07/04 07:34:53;;;;;;;5.88;4.50;;;665.70;1331.20;;;;;;5013179;28;20014;-70
2021/07/04 07:37:19;;;;;;;6.93;4.72;;;665.80;1280.00;;;;;;5013718;28;20025;-70
2021/07/04 07:39:45;;;;;;;8.48;5.85;;;665.80;1305.60;;;;;;5013538;28;20089;-70
2021/07/04 07:42:10;;;;;;;7.63;4.97;;;665.90;1331.20;;;;;;5013573;28;20113;-71
2021/07/04 07:44:36;;;;;;;7.55;4.80;;;;;;;;;;5013650;28;20045;-68
2021/07/04 07:47:04;;;;;;;6.80;4.75;;;;;;;;;;5013635;28;20022;-70
2021/07/04 07:49:30;;;;;;;9.18;6.85;;;;;;;;;;5013308;28;20045;-72
2021/07/04 07:51:56;;;;;;;12.48;8.80;;;;;;;;;;5013048;28;20045;-71
2021/07/04 07:54:22;;;;;;;28.63;25.13;;;;;;;;;;5013484;28;20018;-71
2021/07/04 07:56:48;;;;;;;142.48;120.30;;;;;;;;;;5013333;28;20030;-70
2021/07/04 07:59:14;;;;;;;25.55;19.80;;;;;;;;;;5013243;28;20097;-70
2021/07/04 08:01:41;;;;;;;25.88;22.20;;;;;;;;;;5012633;28;20030;-71
2021/07/04 08:04:07;;;;;;;205.40;180.18;;;;;;;;;;5012453;28;20045;-67
2021/07/04 08:06:33;;;;;;;74.10;64.13;;;;;;;;;;5013095;28;20022;-71
2021/07/04 08:08:59;;;;;;;95.35;80.90;;;;;;;;;;5013200;28;20072;-68
2021/07/04 08:11:26;;;;;;;70.65;60.95;;;;;;;;;;5012681;28;20022;-70
2021/07/04 08:13:52;;;;;;;38.22;31.67;;;;;;;;;;5013000;28;20026;-70
2021/07/04 08:16:18;;;;;;;48.38;39.90;;;;;;;;;;5013034;28;20050;-70
2021/07/04 08:18:44;;;;;;;19.85;17.00;;;;;;;;;;5012790;28;20061;-68
2021/07/04 08:21:10;;;;;;;30.90;24.17;;;;;;;;;;5009809;28;20107;-67
2021/07/04 08:23:36;;;;;;;18.13;13.15;;;691.60;1177.60;;;;;;5013287;28;20029;-66
2021/07/04 08:26:01;;;;;;;85.40;70.93;;;691.50;1228.80;;;;;;5012956;28;20041;-67
2021/07/04 08:28:28;;;;;;;26.92;22.40;;;;;;;;;;5013110;28;20026;-67
2021/07/04 08:30:54;;;;;;;41.45;36.53;;;;;;;;;;5013206;28;20046;-65
2021/07/04 08:33:20;;;;;;;36.20;30.75;;;;;;;;;;5012989;28;20499;-65
2021/07/04 08:35:46;;;;;;;69.78;49.25;;;;;;;;;;5012918;28;20062;-68
2021/07/04 08:38:12;;;;;;;18.05;14.02;;;;;;;;;;5012886;28;20030;-68
2021/07/04 08:40:38;;;;;;;88.15;54.05;;;;;;;;;;5013122;28;20133;-68
2021/07/04 08:43:05;;;;;;;61.42;39.42;;;;;;;;;;5012949;28;20061;-66
2021/07/04 08:45:38;;;;;;;107.65;67.90;;;;;;;;;;5012720;28;20113;-66
2021/07/04 08:48:05;;;;;;;69.57;41.42;;;;;;;;;;5012826;28;20038;-69
2021/07/04 08:50:31;;;;;;;96.20;58.42;;;;;;;;;;5012365;28;20030;-69
2021/07/04 08:52:59;;;;;;;19.98;13.13;;;742.60;1075.20;;;;;;5012800;28;20046;-69
2021/07/04 08:55:25;;;;;;;76.95;46.00;;;742.70;1075.20;;;;;;5012741;28;20010;-70
2021/07/04 08:57:51;;;;;;;109.70;66.05;;;742.80;1075.20;;;;;;5012699;28;20076;-67
2021/07/04 09:00:17;;;;;;;81.35;51.92;;;742.80;1100.80;;;;;;5010743;28;20030;-70
2021/07/04 09:02:43;;;;;;;12.75;9.30;;;742.90;1100.80;;;;;;5012802;28;20021;-71
2021/07/04 09:05:11;;;;;;;70.00;42.38;;;;;;;;;;5012566;28;20079;-71
2021/07/04 09:07:38;;;;;;;22.80;15.98;;;743.10;1100.80;;;;;;5012369;28;20018;-70
2021/07/04 09:10:06;;;;;;;66.63;41.20;;;;;;;;;;5012538;28;20025;-69
2021/07/04 09:12:42;;;;;;;96.40;60.10;;;;;;;;;;5012185;28;20064;-68
2021/07/04 09:15:13;;;;;;;96.28;60.53;;;;;;;;;;5012522;28;20026;-70
2021/07/04 09:17:39;;;;;;;;;;;;;;;;;;5009902;28;20376;-68
2021/07/04 09:20:07;;;;;;;20.58;14.25;;;;;;;;;;5012130;28;20371;-67
2021/07/04 09:22:35;;;;;;;25.95;16.20;;;;;;;;;;5012112;28;20041;-66
2021/07/04 09:25:11;;;;;;;18.15;12.00;;;;;;;;;;4987642;28;20022;-66
2021/07/04 09:27:38;;;;;;;50.05;29.75;;;;;;;;;;5010757;28;20026;-67
2021/07/04 09:30:05;;;;;;;42.00;27.50;;;;;;;;;;5012531;28;20503;-66
2021/07/04 09:32:31;;;;;;;34.88;23.13;;;;;;;;;;5012220;28;20038;-66
2021/07/04 09:35:12;;;;;;;34.00;21.50;;;;;;;;;;5012328;28;20025;-67
2021/07/04 09:37:38;;;;;;;16.10;11.05;;;;;;;;;;5012520;28;20029;-66
2021/07/04 09:40:11;;;;;;;14.48;10.43;;;;;;;;;;5012344;28;20026;-68
2021/07/04 09:42:57;;;;;;;7.15;5.20;;;;;;;;;;5012313;28;20480;-67
2021/07/04 09:45:27;;;;;;;10.98;8.40;;;;;;;;;;5012412;28;20038;-69
2021/07/04 09:47:58;;;;;;;5.60;4.05;;;;;;;;;;5011385;28;20389;-67
2021/07/04 09:50:24;;;;;;;;;;;;;;;;;;5012383;28;20038;-69
2021/07/04 09:53:00;;;;;;;5.72;4.15;;;768.10;896.00;;;;;;5012159;28;19964;-72
2021/07/04 09:55:27;;;;;;;7.50;5.80;;;768.10;921.60;;;;;;5011240;28;20109;-71
2021/07/04 09:58:04;;;;;;;6.97;5.90;;;768.10;921.60;;;;;;5015320;28;20025;-70
2021/07/04 10:00:33;;;;;;;5.32;4.20;;;768.10;947.20;;;;;;5014552;28;20548;-70
2021/07/04 10:03:20;;;;;;;10.98;4.10;;;768.30;896.00;;;;;;5015378;28;20080;-72
2021/07/04 10:05:55;;;;;;;5.25;4.22;;;768.40;972.80;;;;;;4979288;28;20378;-71
2021/07/04 10:08:23;;;;;;;6.75;4.82;;;;;;;;;;5015450;28;20029;-70
2021/07/04 10:10:51;;;;;;;8.10;5.18;;;;;;;;;;5013247;28;20033;-71
2021/07/04 10:13:17;;;;;;;10.25;5.43;;;;;;;;;;5015752;28;20388;-69
2021/07/04 10:15:43;;;;;;;5.75;4.70;;;794.10;844.80;;;;;;5015659;28;20025;-70
2021/07/04 10:18:10;;;;;;;6.60;4.35;;;794.00;896.00;;;;;;5015616;28;20428;-71
2021/07/04 10:20:38;;;;;;;9.77;4.93;;;794.20;844.80;;;;;;5014778;28;20053;-67
2021/07/04 10:23:09;;;;;;;11.18;4.97;;;794.20;844.80;;;;;;5015539;28;20077;-68
2021/07/04 10:25:34;;;;;;;8.07;4.85;;;794.20;870.40;;;;;;5017260;28;20357;-67
2021/07/04 10:28:02;;;;;;;7.07;4.40;;;794.10;896.00;;;;;;5022928;28;20036;-71
2021/07/04 10:30:28;;;;;;;6.18;4.22;;;794.00;844.80;;;;;;5015296;28;20018;-68
2021/07/04 10:33:10;;;;;;;5.88;4.18;;;794.10;844.80;;;;;;5014357;28;20136;-68
2021/07/04 10:35:58;;;;;;;5.60;5.00;;;794.40;819.20;;;;;;5013518;28;20033;-68
2021/07/04 10:38:24;;;;;;;5.28;4.68;;;794.30;870.40;;;;;;5014173;28;20026;-68
2021/07/04 10:40:50;;;;;;;6.47;4.70;;;794.40;844.80;;;;;;5014614;28;20026;-68
2021/07/04 10:43:54;;;;;;;5.07;4.53;;;794.40;870.40;;;;;;5014608;28;20022;-69
2021/07/04 10:46:49;;;;;;;5.95;4.20;;;794.50;819.20;;;;;;5013923;28;20025;-67
2021/07/04 10:49:30;;;;;;;5.25;4.40;;;794.50;870.40;;;;;;5013379;28;20026;-69
2021/07/04 10:52:04;;;;;;;6.00;4.05;;;794.40;870.40;;;;;;5013333;28;20046;-65
2021/07/04 10:54:54;;;;;;;9.85;8.20;;;819.20;844.80;;;;;;5014335;28;20026;-66
2021/07/04 10:57:25;;;;;;;38.88;33.85;;;;;;;;;;5012343;28;20018;-67
2021/07/04 10:59:50;;;;;;;;;;;;;;;;;;5014908;28;20021;-71
2021/07/04 11:02:36;;;;;;;60.33;51.05;;;;;;;;;;5011826;28;19913;-69
2021/07/04 11:05:02;;;;;;;78.63;66.57;;;;;;;;;;5014280;28;20515;-69
2021/07/04 11:07:48;;;;;;;70.03;58.70;;;;;;;;;;5014155;28;20071;-68
2021/07/04 11:10:18;;;;;;;49.10;41.13;;;;;;;;;;5012848;28;20365;-68
2021/07/04 11:12:44;;;;;;;42.33;37.63;;;;;;;;;;5013738;28;20045;-72
2021/07/04 11:15:13;;;;;;;29.67;25.77;;;;;;;;;;5013334;28;20022;-68
2021/07/04 11:17:58;;;;;;;84.05;71.57;;;;;;;;;;5011765;28;20029;-69
2021/07/04 11:20:34;;;;;;;99.93;84.53;;;;;;;;;;5012325;28;20045;-69
2021/07/04 11:23:00;;;;;;;170.05;145.10;;;;;;;;;;5014232;28;20160;-70
2021/07/04 11:25:37;;;;;;;159.38;141.27;;;;;;;;;;5013372;28;20030;-70
2021/07/04 11:28:18;;;;;;;94.22;80.30;;;;;;;;;;5013378;28;20022;-67
2021/07/04 11:30:45;;;;;;;37.35;32.38;;;;;;;;;;5012255;28;20022;-69
2021/07/04 11:33:28;;;;;;;160.13;142.65;;;;;;;;;;5013361;28;20022;-69
2021/07/04 11:35:56;;;;;;;140.07;122.85;;;;;;;;;;5011899;28;20113;-68
2021/07/04 11:38:23;;;;;;;118.65;100.32;;;;;;;;;;5012618;28;20488;-70
2021/07/04 11:40:49;;;;;;;104.45;91.40;;;;;;;;;;5012676;28;20040;-70
2021/07/04 11:43:16;;;;;;;22.90;20.50;;;;;;;;;;5013242;28;20029;-71
2021/07/04 11:46:03;;;;;;;52.50;42.03;;;794.00;896.00;;;;;;5013656;28;20068;-70
2021/07/04 11:49:06;;;;;;;54.33;42.72;;;;;;;;;;5012771;28;20092;-69
2021/07/04 11:51:33;;;;;;;27.55;23.95;;;793.70;921.60;;;;;;4952763;28;20160;-69
2021/07/04 11:54:02;;;;;;;63.28;56.58;;;;;;;;;;4953013;28;20046;-69
2021/07/04 11:56:29;;;;;;;88.93;76.13;;;;;;;;;;4953218;28;20027;-68
2021/07/04 11:59:05;;;;;;;119.40;106.45;;;;;;;;;;4952909;28;20501;-67
2021/07/04 12:01:31;;;;;;;85.35;75.85;;;;;;;;;;4952655;29;20519;-67
2021/07/04 12:03:57;;;;;;;37.53;33.22;;;;;;;;;;4952642;28;20200;-67
2021/07/04 12:06:24;;;;;;;21.83;19.20;;;;;;;;;;4951716;28;20028;-67
2021/07/04 12:08:54;;;;;;;37.55;30.83;;;;;;;;;;4952390;28;20077;-67
2021/07/04 12:11:33;;;;;;;52.78;46.60;;;;;;;;;;4952644;28;20054;-70
2021/07/04 12:13:59;;;;;;;44.30;37.50;;;;;;;;;;4936325;29;20047;-67
2021/07/04 12:16:25;;;;;;;45.47;38.63;;;;;;;;;;4952461;28;20070;-68
2021/07/04 12:18:53;;;;;;;39.42;32.55;;;;;;;;;;4951893;28;20053;-70
2021/07/04 12:21:19;;;;;;;8.88;7.53;;;;;;;;;;4954581;28;20510;-70
2021/07/04 12:23:50;;;;;;;18.83;16.92;;;;;;;;;;4952407;28;20027;-70
2021/07/04 12:26:16;;;;;;;20.27;17.98;;;;;;;;;;4963843;28;20029;-70
2021/07/04 12:28:42;;;;;;;21.02;14.02;;;;;;;;;;5012765;28;20053;-70
2021/07/04 12:31:08;;;;;;;22.88;17.25;;;;;;;;;;5012424;28;20034;-71
2021/07/04 12:33:34;;;;;;;253.93;226.18;;;;;;;;;;5012554;28;20018;-72
2021/07/04 12:36:02;;;;;;;159.43;142.32;;;;;;;;;;5012718;28;20030;-69
2021/07/04 12:38:29;;;;;;;201.70;180.13;;;;;;;;;;5012438;28;20365;-69
2021/07/04 12:40:58;;;;;;;186.32;166.35;;;;;;;;;;5012581;28;20052;-69
2021/07/04 12:43:28;;;;;;;139.43;123.82;;;;;;;;;;5012512;28;20030;-69
2021/07/04 12:45:55;;;;;;;141.82;126.50;;;;;;;;;;5012553;28;20037;-67
2021/07/04 12:48:22;;;;;;;122.22;108.80;;;;;;;;;;5012491;28;20028;-68
2021/07/04 12:50:48;;;;;;;47.33;42.25;;;;;;;;;;5012525;28;20472;-69
2021/07/04 12:53:15;;;;;;;70.57;62.92;;;;;;;;;;5012256;28;20073;-67
2021/07/04 12:55:42;;;;;;;54.53;48.67;;;;;;;;;;5004494;28;20105;-68
2021/07/04 12:58:41;;;;;;;38.72;34.15;;;;;;;;;;5013671;28;20034;-68
2021/07/04 13:01:17;;;;;;;78.05;56.53;;;;;;;;;;4932137;29;20521;-69
2021/07/04 13:03:45;;;;;;;84.78;62.60;;;;;;;;;;4932483;29;20055;-68
2021/07/04 13:06:30;;;;;;;75.25;55.25;;;;;;;;;;4932912;29;20091;-68
2021/07/04 13:08:59;;;;;;;55.10;38.90;;;;;;;;;;4932379;29;20106;-69
2021/07/04 13:11:26;;;;;;;46.05;31.42;;;;;;;;;;4932372;29;20048;-70
2021/07/04 13:13:55;;;;;;;57.55;41.58;;;;;;;;;;4932675;29;20023;-67
2021/07/04 13:16:21;;;;;;;46.38;32.78;;;;;;;;;;4932712;28;20027;-69
2021/07/04 13:18:47;;;;;;;31.15;23.30;;;;;;;;;;4932425;29;20087;-67
2021/07/04 13:21:30;;;;;;;48.97;34.70;;;;;;;;;;4931328;29;20483;-69
2021/07/04 13:24:15;;;;;;;62.53;43.72;;;;;;;;;;4915867;29;20043;-69
2021/07/04 13:26:42;;;;;;;55.53;40.80;;;;;;;;;;4928597;29;20324;-70
2021/07/04 13:29:15;;;;;;;108.28;78.15;;;;;;;;;;4929210;29;20024;-69
2021/07/04 13:31:41;;;;;;;111.60;77.45;;;;;;;;;;4911773;29;20025;-72
2021/07/04 13:34:21;;;;;;;117.68;88.43;;;;;;;;;;4931319;29;20065;-71
2021/07/04 13:36:56;;;;;;;78.53;55.88;;;;;;;;;;4944454;28;20034;-70
2021/07/04 13:39:22;;;;;;;69.70;49.45;;;;;;;;;;4976864;28;20015;-71